sensor_id;sensor_type;location;lat;lon;timestamp;pressure;altitude;pressure_sealevel;temperature;humidity
78142;BME280;67393;52.620;13.482;2023-05-06T17:02:37;101658.69;;;8.02;100.00
78142;BME280;67393;52.620;13.482;2023-05-06T17:05:05;101662.19;;;8.11;100.00
78142;BME280;67393;52.620;13.482;2023-05-06T17:07:31;101661.31;;;8.16;100.00
78142;BME280;67393;52.620;13.482;2023-05-06T17:09:57;101661.31;;;8.15;100.00
78142;BME280;67393;52.620;13.482;2023-05-06T17:12:24;101660.44;;;8.16;100.00
78142;BME280;67393;52.620;13.482;2023-05-06T17:14:50;101670.13;;;8.20;100.00
78142;BME280;67393;52.620;13.482;2023-05-06T17:17:16;101675.41;;;8.23;100.00
78142;BME280;67393;52.620;13.482;2023-05-06T17:19:46;101676.28;;;8.23;100.00
78142;BME280;67393;52.620;13.482;2023-05-06T17:22:12;101677.16;;;8.24;100.00
78142;BME280;67393;52.620;13.482;2023-05-06T17:24:38;101677.19;;;8.19;100.00
78142;BME280;67393;52.620;13.482;2023-05-06T17:27:04;101681.56;;;8.28;100.00
78142;BME280;67393;52.620;13.482;2023-05-06T17:29:31;101679.81;;;8.27;100.00
78142;BME280;67393;52.620;13.482;2023-05-06T17:31:58;101679.81;;;8.21;100.00
78142;BME280;67393;52.620;13.482;2023-05-06T17:34:24;101683.31;;;8.26;100.00
78142;BME280;67393;52.620;13.482;2023-05-06T17:36:51;101683.34;;;8.23;100.00
78142;BME280;67393;52.620;13.482;2023-05-06T17:39:17;101685.97;;;8.18;100.00
78142;BME280;67393;52.620;13.482;2023-05-06T17:41:43;101683.31;;;8.26;100.00
78142;BME280;67393;52.620;13.482;2023-05-06T17:44:09;101680.66;;;8.29;100.00
78142;BME280;67393;52.620;13.482;2023-05-06T17:46:36;61758.41;;;-145.85;100.00
78142;BME280;67393;52.620;13.482;2023-05-06T17:49:02;61758.41;;;-145.85;100.00
78142;BME280;67393;52.620;13.482;2023-05-06T17:51:28;61758.41;;;-145.85;100.00
78142;BME280;67393;52.620;13.482;2023-05-06T17:53:56;61758.41;;;-145.85;100.00
78142;BME280;67393;52.620;13.482;2023-05-06T17:56:22;61758.41;;;-145.85;100.00
78142;BME280;67393;52.620;13.482;2023-05-06T17:58:48;61758.41;;;-145.85;100.00
78142;BME280;67393;52.620;13.482;2023-05-06T18:01:15;61758.41;;;-145.85;100.00
78142;BME280;67393;52.620;13.482;2023-05-06T18:03:41;61758.41;;;-145.85;100.00
78142;BME280;67393;52.620;13.482;2023-05-06T18:06:07;61758.41;;;-145.85;100.00
78142;BME280;67393;52.620;13.482;2023-05-06T18:08:34;61758.41;;;-145.85;100.00
78142;BME280;67393;52.620;13.482;2023-05-06T18:11:00;61758.41;;;-145.85;100.00
78142;BME280;67393;52.620;13.482;2023-05-06T18:13:26;61758.41;;;-145.85;100.00
78142;BME280;67393;52.620;13.482;2023-05-06T18:15:53;61758.41;;;-145.85;100.00
78142;BME280;67393;52.620;13.482;2023-05-06T18:18:19;61758.41;;;-145.85;100.00
78142;BME280;67393;52.620;13.482;2023-05-06T18:20:45;61758.41;;;-145.85;100.00
78142;BME280;67393;52.620;13.482;2023-05-06T18:23:12;61758.41;;;-145.85;100.00
78142;BME280;67393;52.620;13.482;2023-05-06T18:25:38;61758.41;;;-145.85;100.00
78142;BME280;67393;52.620;13.482;2023-05-06T18:28:04;61758.41;;;-145.85;100.00
78142;BME280;67393;52.620;13.482;2023-05-06T18:30:30;61758.41;;;-145.85;100.00
78142;BME280;67393;52.620;13.482;2023-05-06T18:32:57;61758.41;;;-145.85;100.00
78142;BME280;67393;52.620;13.482;2023-05-06T18:35:23;61758.41;;;-145.85;100.00
78142;BME280;67393;52.620;13.482;2023-05-06T18:37:49;61758.41;;;-145.85;100.00
78142;BME280;67393;52.620;13.482;2023-05-06T18:40:16;61758.41;;;-145.85;100.00
78142;BME280;67393;52.620;13.482;2023-05-06T18:42:42;61758.41;;;-145.85;100.00
78142;BME280;67393;52.620;13.482;2023-05-06T18:45:09;61758.41;;;-145.85;100.00
78142;BME280;67393;52.620;13.482;2023-05-06T18:47:36;61758.41;;;-145.85;100.00
78142;BME280;67393;52.620;13.482;2023-05-06T18:50:02;61758.41;;;-145.85;100.00
78142;BME280;67393;52.620;13.482;2023-05-06T18:52:29;61758.41;;;-145.85;100.00
78142;BME280;67393;52.620;13.482;2023-05-06T18:54:55;61758.41;;;-145.85;100.00
78142;BME280;67393;52.620;13.482;2023-05-06T18:57:21;61758.41;;;-145.85;100.00
78142;BME280;67393;52.620;13.482;2023-05-06T18:59:47;61758.41;;;-145.85;100.00
78142;BME280;67393;52.620;13.482;2023-05-06T19:02:14;61758.41;;;-145.85;100.00
78142;BME280;67393;52.620;13.482;2023-05-06T19:04:40;61758.41;;;-145.85;100.00
78142;BME280;67393;52.620;13.482;2023-05-06T19:07:06;61758.41;;;-145.85;100.00
78142;BME280;67393;52.620;13.482;2023-05-06T19:09:33;61758.41;;;-145.85;100.00
78142;BME280;67393;52.620;13.482;2023-05-06T19:11:59;61758.41;;;-145.85;100.00
78142;BME280;67393;52.620;13.482;2023-05-06T19:14:25;61758.41;;;-145.85;100.00
78142;BME280;67393;52.620;13.482;2023-05-06T19:16:51;61758.41;;;-145.85;100.00
78142;BME280;67393;52.620;13.482;2023-05-06T19:19:18;61758.41;;;-145.85;100.00
78142;BME280;67393;52.620;13.482;2023-05-06T19:21:44;61758.41;;;-145.85;100.00
78142;BME280;67393;52.620;13.482;2023-05-06T19:24:10;61758.41;;;-145.85;100.00
78142;BME280;67393;52.620;13.482;2023-05-06T19:26:37;61758.41;;;-145.85;100.00
78142;BME280;67393;52.620;13.482;2023-05-06T19:29:03;61758.41;;;-145.85;100.00
78142;BME280;67393;52.620;13.482;2023-05-06T19:31:29;61758.41;;;-145.85;100.00
78142;BME280;67393;52.620;13.482;2023-05-06T19:33:56;61758.41;;;-145.85;100.00
78142;BME280;67393;52.620;13.482;2023-05-06T19:36:22;61758.41;;;-145.85;100.00
78142;BME280;67393;52.620;13.482;2023-05-06T19:38:48;61758.41;;;-145.85;100.00
78142;BME280;67393;52.620;13.482;2023-05-06T19:41:15;61758.41;;;-145.85;100.00
78142;BME280;67393;52.620;13.482;2023-05-06T19:43:42;61758.41;;;-145.85;100.00
78142;BME280;67393;52.620;13.482;2023-05-06T19:46:12;61758.41;;;-145.85;100.00
78142;BME280;67393;52.620;13.482;2023-05-06T19:48:39;61758.41;;;-145.85;100.00
78142;BME280;67393;52.620;13.482;2023-05-06T19:51:05;61758.41;;;-145.85;100.00
78142;BME280;67393;52.620;13.482;2023-05-06T19:53:32;61758.41;;;-145.85;100.00
78142;BME280;67393;52.620;13.482;2023-05-06T19:56:11;61758.41;;;-145.85;100.00
78142;BME280;67393;52.620;13.482;2023-05-06T19:58:38;61758.41;;;-145.85;100.00
78142;BME280;67393;52.620;13.482;2023-05-06T20:01:04;61758.41;;;-145.85;100.00
78142;BME280;67393;52.620;13.482;2023-05-06T20:03:31;61758.41;;;-145.85;100.00
78142;BME280;67393;52.620;13.482;2023-05-06T20:05:58;61758.41;;;-145.85;100.00
78142;BME280;67393;52.620;13.482;2023-05-06T20:08:24;61758.41;;;-145.85;100.00
78142;BME280;67393;52.620;13.482;2023-05-06T20:10:51;61758.41;;;-145.85;100.00
78142;BME280;67393;52.620;13.482;2023-05-06T20:13:17;61758.41;;;-145.85;100.00
78142;BME280;67393;52.620;13.482;2023-05-06T20:15:44;61758.41;;;-145.85;100.00
78142;BME280;67393;52.620;13.482;2023-05-06T20:18:11;61758.41;;;-145.85;100.00
78142;BME280;67393;52.620;13.482;2023-05-06T20:20:38;61758.41;;;-145.85;100.00
78142;BME280;67393;52.620;13.482;2023-05-06T20:23:05;61758.41;;;-145.85;100.00
78142;BME280;67393;52.620;13.482;2023-05-06T20:25:31;61758.41;;;-145.85;100.00
78142;BME280;67393;52.620;13.482;2023-05-06T20:27:58;61758.41;;;-145.85;100.00
78142;BME280;67393;52.620;13.482;2023-05-06T20:30:25;61758.41;;;-145.85;100.00
78142;BME280;67393;52.620;13.482;2023-05-06T20:32:51;61758.41;;;-145.85;100.00
78142;BME280;67393;52.620;13.482;2023-05-06T20:35:18;61758.41;;;-145.85;100.00
78142;BME280;67393;52.620;13.482;2023-05-06T20:37:44;61758.41;;;-145.85;100.00
78142;BME280;67393;52.620;13.482;2023-05-06T20:40:11;61758.41;;;-145.85;100.00
78142;BME280;67393;52.620;13.482;2023-05-06T20:42:37;61758.41;;;-145.85;100.00
78142;BME280;67393;52.620;13.482;2023-05-06T20:45:05;61758.41;;;-145.85;100.00
78142;BME280;67393;52.620;13.482;2023-05-06T20:47:31;61758.41;;;-145.85;100.00
78142;BME280;67393;52.620;13.482;2023-05-06T20:49:57;61758.41;;;-145.85;100.00
78142;BME280;67393;52.620;13.482;2023-05-06T20:52:25;61758.41;;;-145.85;100.00
78142;BME280;67393;52.620;13.482;2023-05-06T20:54:52;61758.41;;;-145.85;100.00
78142;BME280;67393;52.620;13.482;2023-05-06T20:58:18;61758.41;;;-145.85;100.00
78142;BME280;67393;52.620;13.482;2023-05-06T21:01:16;61758.41;;;-145.85;100.00
78142;BME280;67393;52.620;13.482;2023-05-06T21:04:00;61758.41;;;-145.85;100.00
78142;BME280;67393;52.620;13.482;2023-05-06T21:06:39;61758.41;;;-145.85;100.00
78142;BME280;67393;52.620;13.482;2023-05-06T21:09:25;61758.41;;;-145.85;100.00
78142;BME280;67393;52.620;13.482;2023-05-06T21:12:25;61758.41;;;-145.85;100.00
78142;BME280;67393;52.620;13.482;2023-05-06T21:15:35;61758.41;;;-145.85;100.00
78142;BME280;67393;52.620;13.482;2023-05-06T21:18:25;61758.41;;;-145.85;100.00
78142;BME280;67393;52.620;13.482;2023-05-06T21:21:49;61758.41;;;-145.85;100.00
78142;BME280;67393;52.620;13.482;2023-05-06T21:25:13;61758.41;;;-145.85;100.00
